Terminal Aerodrome Forecast
Issued by NWS

Home | Current Version | Previous Version | Text Only | Print | Product List | Glossary On
Versions: 1 2 3 4 5 6 7 8 9 10 11 12 13 14
185
FTUS41 KAKQ 270521
TAFPHF
TAF
KPHF 270521Z 2706/2806 20007KT P6SM OVC040
     FM271400 23007KT 6SM -SHRA BR OVC030
     FM271800 22006KT 6SM -SHRA BR OVC040
     FM272000 16005KT 6SM -SHRA BR OVC040=

USA.gov is the U.S. government's official web portal to all federal, state and local government web resources and services.